Time;durP1;ratioP1;P1;durP2;ratioP2;P2;SDS_P1;SDS_P2;PMS_P1;PMS_P2;Temp;Humidity;BMP_temperature;BMP_pressure;BME280_temperature;BME280_humidity;BME280_pressure;Samples;Min_cycle;Max_cycle;Signal;HPM_P1;HPM_P2
2022/05/31 00:02:19;;;;;;;1.85;1.73;;;;;;;18.03;66.89;100635.28;5050949;28;20044;-64
2022/05/31 00:04:47;;;;;;;2.05;1.90;;;;;;;18.03;65.80;100628.94;5051001;28;20064;-64
2022/05/31 00:07:16;;;;;;;3.58;1.77;;;;;;;18.19;65.74;100623.72;5050564;28;20055;-64
2022/05/31 00:09:44;;;;;;;2.22;2.00;;;;;;;18.07;66.70;100638.22;5051275;28;20049;-64
2022/05/31 00:12:14;;;;;;;2.05;1.55;;;;;;;18.02;65.71;100636.44;5050663;28;20499;-64
2022/05/31 00:14:43;;;;;;;2.10;1.75;;;;;;;17.95;66.05;100625.84;5051018;28;20052;-64
2022/05/31 00:17:12;;;;;;;2.15;1.90;;;;;;;17.93;66.16;100639.22;5050480;28;20509;-64
2022/05/31 00:19:40;;;;;;;2.97;1.77;;;;;;;18.01;64.80;100640.34;5050709;28;20045;-64
2022/05/31 00:22:14;;;;;;;2.67;1.85;;;;;;;18.07;64.81;100635.47;5050812;28;20045;-64
2022/05/31 00:24:42;;;;;;;;;;;;;;;18.04;64.91;100627.81;5048908;28;20064;-64
2022/05/31 00:27:12;;;;;;;5.00;1.85;;;;;;;18.05;65.06;100637.72;5051067;28;19947;-64
2022/05/31 00:29:41;;;;;;;2.83;1.98;;;;;;;17.95;64.72;100636.91;5050157;28;20061;-64
2022/05/31 00:32:12;;;;;;;1.60;1.50;;;;;;;17.76;65.62;100630.94;5050933;28;20226;-63
2022/05/31 00:34:43;;;;;;;3.75;1.55;;;;;;;17.73;66.00;100633.22;5033182;28;20056;-64
2022/05/31 00:37:12;;;;;;;5.00;2.00;;;;;;;17.64;66.84;100629.66;5052087;28;20053;-64
2022/05/31 00:40:27;;;;;;;1.80;1.60;;;;;;;17.59;66.81;100629.81;5047176;28;20057;-64
2022/05/31 00:43:10;;;;;;;4.40;1.70;;;;;;;17.43;67.83;100621.19;5050289;28;20049;-64
2022/05/31 00:45:45;;;;;;;2.33;1.48;;;;;;;17.35;68.35;100625.59;5033121;28;20067;-65
2022/05/31 00:48:23;;;;;;;6.25;1.90;;;;;;;17.22;69.31;100623.81;5051022;28;20048;-65
2022/05/31 00:50:55;;;;;;;2.70;2.30;;;;;;;17.19;70.00;100634.38;5051436;28;20052;-65
2022/05/31 00:53:48;;;;;;;3.30;2.17;;;;;;;17.10;72.11;100639.06;5050941;28;20054;-65
2022/05/31 00:56:20;;;;;;;4.60;3.13;;;;;;;17.05;75.26;100637.28;5022325;28;20056;-65
2022/05/31 00:58:58;;;;;;;3.28;2.50;;;;;;;17.08;76.90;100635.00;5030294;28;20048;-65
2022/05/31 01:01:30;;;;;;;3.10;2.80;;;;;;;17.13;78.90;100632.91;5030792;28;20072;-65
2022/05/31 01:03:59;;;;;;;5.20;3.42;;;;;;;17.01;80.35;100630.72;5051301;28;20380;-64
2022/05/31 01:06:27;;;;;;;4.25;3.85;;;;;;;16.96;81.45;100627.31;5016659;28;20053;-65
2022/05/31 01:08:58;;;;;;;5.07;3.42;;;;;;;16.89;83.03;100628.63;5050794;28;20056;-64
2022/05/31 01:11:39;;;;;;;3.80;3.40;;;;;;;16.88;83.50;100631.69;5050235;28;20407;-65
2022/05/31 01:14:27;;;;;;;6.88;3.40;;;;;;;16.87;84.30;100636.41;5044543;28;20059;-64
2022/05/31 01:17:22;;;;;;;5.40;3.40;;;;;;;16.88;84.25;100638.03;5049307;28;20071;-64
2022/05/31 01:20:04;;;;;;;5.35;3.97;;;;;;;17.04;84.27;100641.19;5036951;28;20064;-63
2022/05/31 01:22:52;;;;;;;4.47;3.67;;;;;;;17.07;84.17;100639.75;5053772;28;20037;-64
2022/05/31 01:25:43;;;;;;;4.95;3.75;;;;;;;16.97;85.35;100634.47;5031475;28;20048;-64
2022/05/31 01:28:36;;;;;;;5.88;4.35;;;;;;;16.92;84.76;100641.78;5025720;28;20391;-64
2022/05/31 01:31:04;;;;;;;4.97;4.30;;;;;;;16.89;85.76;100642.44;5074088;28;20056;-64
2022/05/31 01:33:46;;;;;;;6.18;4.25;;;;;;;16.83;85.35;100640.13;5069761;28;20513;-64
2022/05/31 01:36:19;;;;;;;5.38;4.38;;;;;;;16.86;85.50;100633.97;5074485;28;20032;-64
2022/05/31 01:39:00;;;;;;;4.80;4.18;;;;;;;16.87;85.76;100641.91;5073060;28;20487;-64
2022/05/31 01:41:46;;;;;;;5.05;4.03;;;;;;;16.99;84.93;100640.50;5070403;28;20045;-64
2022/05/31 01:44:18;;;;;;;5.25;4.40;;;;;;;17.04;84.09;100640.38;5073261;28;20412;-64
2022/05/31 01:46:52;;;;;;;7.00;5.10;;;;;;;16.98;83.90;100641.63;5073051;28;20040;-64
2022/05/31 01:49:22;;;;;;;5.40;4.78;;;;;;;16.95;84.13;100637.56;5073293;28;20049;-63
2022/05/31 01:51:51;;;;;;;4.72;3.95;;;;;;;16.90;84.55;100629.41;5073677;28;20048;-64
2022/05/31 01:54:19;;;;;;;5.32;4.25;;;;;;;16.89;83.97;100636.91;5053149;28;20049;-64
2022/05/31 01:56:58;;;;;;;8.15;4.65;;;;;;;16.90;83.52;100638.53;5066198;28;20419;-64
2022/05/31 01:59:29;;;;;;;6.32;4.70;;;;;;;16.97;83.54;100637.25;5073175;28;20044;-64
2022/05/31 02:02:01;;;;;;;5.55;4.57;;;;;;;16.94;84.02;100630.41;5055811;28;20056;-64
2022/05/31 02:04:32;;;;;;;5.47;4.60;;;;;;;16.99;82.87;100646.00;5072762;28;20049;-64
2022/05/31 02:07:15;;;;;;;6.38;4.35;;;;;;;17.00;82.21;100650.41;5071826;28;20048;-64
2022/05/31 02:09:49;;;;;;;4.65;3.78;;;;;;;16.98;82.18;100649.91;5072113;28;20047;-64
2022/05/31 02:12:29;;;;;;;4.32;3.80;;;;;;;17.00;81.34;100654.00;5071444;28;20044;-64
2022/05/31 02:15:18;;;;;;;4.47;3.90;;;;;;;17.00;80.24;100650.41;5055625;28;20502;-64
2022/05/31 02:18:12;;;;;;;5.53;3.83;;;;;;;16.95;81.05;100645.84;5045746;28;20514;-64
2022/05/31 02:20:59;;;;;;;7.20;4.40;;;;;;;16.91;81.10;100651.22;5068361;28;20506;-64
2022/05/31 02:23:27;;;;;;;4.63;3.60;;;;;;;16.90;80.86;100657.88;5071803;28;20052;-64
2022/05/31 02:25:55;;;;;;;8.13;4.53;;;;;;;16.91;81.57;100659.50;5072063;28;20052;-64
2022/05/31 02:28:24;;;;;;;5.00;3.92;;;;;;;17.04;81.25;100654.19;5071568;28;20521;-65
2022/05/31 02:30:54;;;;;;;6.72;4.25;;;;;;;17.06;79.15;100663.00;5071411;28;20407;-64
2022/05/31 02:33:22;;;;;;;6.28;4.07;;;;;;;17.11;78.74;100657.28;5071463;28;20044;-64
2022/05/31 02:35:50;;;;;;;5.03;3.90;;;;;;;17.06;79.00;100654.69;5071779;28;20041;-64
2022/05/31 02:38:21;;;;;;;6.10;3.58;;;;;;;17.00;79.39;100661.47;5069504;28;20474;-64
2022/05/31 02:40:51;;;;;;;5.05;3.55;;;;;;;17.02;79.10;100667.50;5072630;28;20052;-64
2022/05/31 02:43:19;;;;;;;5.30;3.85;;;;;;;17.00;79.23;100662.28;5067904;28;20056;-64
2022/05/31 02:45:47;;;;;;;4.65;4.20;;;;;;;17.02;80.16;100660.03;5071581;28;20456;-64
2022/05/31 02:48:15;;;;;;;7.18;4.53;;;;;;;17.02;79.84;100659.22;5072880;28;20048;-64
2022/05/31 02:50:43;;;;;;;5.50;4.00;;;;;;;16.92;80.30;100649.28;5072814;28;20394;-64
2022/05/31 02:53:11;;;;;;;7.75;4.45;;;;;;;16.88;81.66;100654.63;5071147;28;20053;-64
2022/05/31 02:55:39;;;;;;;5.72;3.90;;;;;;;16.81;81.12;100650.69;5065631;28;20426;-64
2022/05/31 02:58:26;;;;;;;7.32;4.25;;;;;;;16.74;83.19;100660.28;5072597;28;20127;-64
2022/05/31 03:01:21;;;;;;;6.18;4.70;;;;;;;16.86;82.60;100651.34;5071250;28;20048;-64
2022/05/31 03:04:08;;;;;;;7.95;5.10;;;;;;;16.84;83.42;100655.56;5067864;28;20052;-64
2022/05/31 03:07:01;;;;;;;8.35;4.65;;;;;;;16.74;84.64;100668.56;5061359;28;20071;-64
2022/05/31 03:09:32;;;;;;;6.32;4.72;;;;;;;16.77;85.35;100680.94;5071375;28;20045;-64
2022/05/31 03:12:17;;;;;;;9.00;5.40;;;;;;;16.77;85.46;100680.94;5070120;28;20521;-64
2022/05/31 03:14:45;;;;;;;6.97;5.15;;;;;;;16.74;86.77;100676.03;5069546;28;20421;-64
2022/05/31 03:17:20;;;;;;;10.07;5.70;;;;;;;16.72;87.02;100675.53;5072006;28;20059;-64
2022/05/31 03:19:54;;;;;;;10.77;6.07;;;;;;;16.71;87.73;100687.72;5070293;28;20044;-64
2022/05/31 03:22:27;;;;;;;11.50;5.97;;;;;;;16.74;87.21;100684.31;5070808;28;20048;-64
2022/05/31 03:25:01;;;;;;;9.90;6.05;;;;;;;16.64;88.22;100685.41;5070108;28;20088;-64
2022/05/31 03:27:30;;;;;;;9.45;6.05;;;;;;;16.70;87.52;100689.66;5071944;28;20048;-64
2022/05/31 03:30:00;;;;;;;9.45;5.65;;;;;;;16.73;88.14;100685.47;5070828;28;20055;-64
2022/05/31 03:32:30;;;;;;;9.70;5.97;;;;;;;16.70;88.29;100694.38;5070379;28;20052;-64
2022/05/31 03:34:58;;;;;;;10.73;6.15;;;;;;;16.78;88.46;100693.59;5071758;28;20407;-64
2022/05/31 03:37:28;;;;;;;9.95;6.13;;;;;;;16.82;87.06;100691.84;5069843;28;20049;-64
2022/05/31 03:39:57;;;;;;;9.45;6.30;;;;;;;16.86;87.19;100690.03;5069799;28;20056;-64
2022/05/31 03:42:26;;;;;;;11.80;6.50;;;;;;;16.75;87.46;100697.00;5064832;28;20044;-64
2022/05/31 03:44:54;;;;;;;9.55;6.35;;;;;;;16.75;87.86;100688.69;5060470;28;20056;-65
2022/05/31 03:47:42;;;;;;;9.68;6.82;;;;;;;16.70;88.79;100688.84;5060407;28;20055;-65
2022/05/31 03:50:31;;;;;;;9.77;6.72;;;;;;;16.72;88.01;100689.34;5058510;28;20048;-65
2022/05/31 03:53:01;;;;;;;9.68;6.20;;;;;;;16.75;87.70;100688.69;5059943;28;20064;-65
2022/05/31 03:55:29;;;;;;;11.13;6.15;;;;;;;16.79;88.26;100687.78;5047577;28;20064;-64
2022/05/31 03:57:59;;;;;;;7.18;4.90;;;;;;;16.98;84.52;100674.81;5044247;28;20059;-65
2022/05/31 04:00:59;;;;;;;6.53;3.92;;;;;;;17.15;81.63;100680.41;5031218;28;20045;-65
2022/05/31 04:03:27;;;;;;;5.22;3.28;;;;;;;17.38;79.27;100677.50;5062876;28;20505;-65
2022/05/31 04:05:55;;;;;;;3.47;2.58;;;;;;;17.28;80.14;100675.06;5058837;28;20056;-65
2022/05/31 04:08:25;;;;;;;2.63;2.28;;;;;;;17.22;79.99;100674.41;5063030;28;20391;-65
2022/05/31 04:10:54;;;;;;;2.30;2.10;;;;;;;17.17;80.56;100683.66;5059632;28;20048;-62
2022/05/31 04:13:23;;;;;;;2.30;2.10;;;;;;;17.10;80.25;100679.75;5062535;28;20529;-62
2022/05/31 04:16:15;;;;;;;5.05;2.42;;;;;;;16.96;81.31;100680.63;5065861;28;20047;-62
2022/05/31 04:18:56;;;;;;;4.18;2.33;;;;;;;17.06;80.27;100683.16;5062914;28;20399;-62
2022/05/31 04:21:24;;;;;;;2.47;2.28;;;;;;;16.91;81.02;100686.31;5069464;28;20055;-62
2022/05/31 04:23:58;;;;;;;2.47;2.05;;;;;;;17.09;80.34;100687.22;5060394;28;20064;-62
2022/05/31 04:26:44;;;;;;;3.05;2.20;;;;;;;17.19;80.07;100695.22;5065524;28;20056;-65
2022/05/31 04:29:30;;;;;;;4.07;1.92;;;;;;;17.34;78.99;100693.13;5046040;28;20059;-62
2022/05/31 04:32:04;;;;;;;4.00;2.35;;;;;;;17.44;78.42;100691.97;5040182;28;20372;-64
2022/05/31 04:34:48;;;;;;;2.55;2.28;;;;;;;17.57;77.30;100695.75;5025481;28;20060;-64
2022/05/31 04:37:16;;;;;;;2.63;2.15;;;;;;;17.65;77.62;100702.41;5014893;28;20064;-64
2022/05/31 04:40:08;;;;;;;2.42;1.88;;;;;;;17.67;76.88;100706.50;5034030;28;20050;-64
2022/05/31 04:42:55;;;;;;;4.13;2.30;;;;;;;17.49;77.71;100699.34;5043176;28;20475;-64
2022/05/31 04:45:32;;;;;;;3.08;2.20;;;;;;;17.63;76.02;100693.63;5045080;28;20060;-64
2022/05/31 04:48:18;;;;;;;2.28;2.08;;;;;;;17.78;75.35;100689.56;5019457;28;20045;-64
2022/05/31 04:50:48;;;;;;;2.65;2.15;;;;;;;17.72;75.41;100691.69;5028320;28;20045;-64
2022/05/31 04:53:17;;;;;;;3.17;2.40;;;;;;;17.82;75.02;100698.81;5030897;28;20057;-70
2022/05/31 04:56:08;;;;;;;4.00;2.58;;;;;;;17.85;74.33;100695.41;5046799;28;20087;-70
2022/05/31 04:58:37;;;;;;;3.03;2.17;;;;;;;17.92;74.71;100701.28;5029605;28;20045;-70
2022/05/31 05:01:06;;;;;;;2.97;2.03;;;;;;;18.05;74.92;100693.94;5035723;28;20049;-69
2022/05/31 05:03:37;;;;;;;3.28;2.55;;;;;;;17.96;73.75;100695.88;5030983;28;20506;-69
2022/05/31 05:06:08;;;;;;;1.73;1.58;;;;;;;18.09;73.39;100708.75;5049518;28;20037;-69
2022/05/31 05:08:38;;;;;;;1.77;1.67;;;;;;;18.16;73.30;100693.59;5030647;28;20037;-69
2022/05/31 05:11:10;;;;;;;2.35;2.08;;;;;;;18.22;73.33;100698.66;5029830;28;20052;-69
2022/05/31 05:13:44;;;;;;;2.95;2.33;;;;;;;18.33;72.67;100707.41;5034759;28;20040;-69
2022/05/31 05:16:13;;;;;;;2.42;2.20;;;;;;;18.34;71.94;100705.47;5047409;28;20391;-69
2022/05/31 05:18:45;;;;;;;2.20;2.05;;;;;;;18.32;71.75;100713.31;5038649;28;20052;-69
2022/05/31 05:21:15;;;;;;;2.92;1.77;;;;;;;18.32;72.70;100711.31;5034109;28;20052;-70
2022/05/31 05:23:45;;;;;;;3.45;2.25;;;;;;;18.53;70.76;100718.94;5002815;28;20057;-71
2022/05/31 05:26:18;;;;;;;1.83;1.73;;;;;;;18.54;70.53;100721.38;4997445;28;20041;-71
2022/05/31 05:31:58;;;;;;;2.38;2.15;;;;;;;18.80;69.93;100714.94;5045546;28;20060;-70
2022/05/31 05:34:55;;;;;;;4.53;2.60;;;;;;;18.82;69.94;100720.13;5048902;28;20045;-70
2022/05/31 05:37:24;;;;;;;2.53;2.17;;;;;;;18.86;70.38;100720.28;5053556;28;20063;-70
2022/05/31 05:40:00;;;;;;;2.60;2.38;;;;;;;18.90;69.75;100716.50;5053669;28;20395;-70
2022/05/31 05:42:34;;;;;;;2.45;1.90;;;;;;;19.07;69.86;100720.38;5065228;28;20055;-70
2022/05/31 05:45:12;;;;;;;2.08;1.80;;;;;;;19.11;70.63;100724.09;5060991;28;20415;-70
2022/05/31 05:47:44;;;;;;;2.85;1.92;;;;;;;19.19;69.45;100726.00;5065063;28;20052;-71
2022/05/31 05:50:16;;;;;;;7.22;2.45;;;;;;;19.18;69.40;100738.25;5043091;28;20415;-70
2022/05/31 05:53:00;;;;;;;4.05;2.42;;;;;;;19.22;68.78;100732.03;5054516;28;20049;-70
2022/05/31 05:55:43;;;;;;;2.22;1.95;;;;;;;19.28;68.34;100747.31;5054560;28;20037;-70
2022/05/31 05:58:30;;;;;;;2.20;2.00;;;;;;;19.26;67.69;100739.34;5054398;28;20041;-70
2022/05/31 06:01:26;;;;;;;2.92;2.10;;;;;;;19.33;67.45;100741.59;5053613;28;20049;-70
2022/05/31 06:04:34;;;;;;;2.92;2.63;;;;;;;19.31;67.60;100736.38;5054392;28;20053;-70
2022/05/31 06:07:16;;;;;;;5.05;1.90;;;;;;;19.39;66.86;100739.41;5052893;28;20395;-70
2022/05/31 06:10:15;;;;;;;5.00;2.10;;;;;;;19.47;66.61;100753.25;5054099;28;20057;-70
2022/05/31 06:12:58;;;;;;;2.42;2.00;;;;;;;19.68;65.19;100741.34;5054068;28;20076;-70
2022/05/31 06:15:38;;;;;;;6.43;1.83;;;;;;;19.91;64.33;100756.84;5052680;28;20041;-70
2022/05/31 06:18:11;;;;;;;3.10;2.75;;;;;;;19.88;66.12;100753.59;5051417;28;20052;-70
2022/05/31 06:20:44;;;;;;;2.72;2.22;;;;;;;20.05;64.52;100768.53;5072933;28;20052;-70
2022/05/31 06:23:13;;;;;;;3.85;2.55;;;;;;;19.95;65.02;100755.03;5072805;28;20051;-70
2022/05/31 06:25:41;;;;;;;3.33;2.53;;;;;;;19.87;64.46;100757.53;5072666;28;20041;-70
2022/05/31 06:28:12;;;;;;;3.70;2.40;;;;;;;19.96;64.23;100765.00;5069190;28;20045;-70
2022/05/31 06:30:41;;;;;;;3.70;2.85;;;;;;;19.88;65.80;100758.34;5053898;28;20500;-70
2022/05/31 06:33:09;;;;;;;4.22;3.20;;;;;;;20.00;64.58;100765.97;5035947;28;20407;-70
2022/05/31 06:35:37;;;;;;;6.13;3.03;;;;;;;20.01;65.46;100748.13;5036105;28;20036;-70
2022/05/31 06:38:07;;;;;;;4.25;3.63;;;;;;;19.93;65.91;100751.75;5035897;28;20064;-70
2022/05/31 06:40:39;;;;;;;4.88;3.42;;;;;;;19.85;66.53;100751.50;5036001;28;20155;-70
2022/05/31 06:43:25;;;;;;;4.47;3.42;;;;;;;19.96;66.27;100753.91;5053575;28;20064;-70
2022/05/31 06:46:25;;;;;;;6.05;3.90;;;;;;;19.85;67.68;100736.81;5010710;28;20038;-70
2022/05/31 06:49:15;;;;;;;5.38;3.65;;;;;;;19.97;66.96;100738.84;5018584;28;20539;-70
2022/05/31 06:57:41;;;;;;;5.85;4.03;;;;;;;19.92;68.34;100752.91;5041723;28;20045;-70
2022/05/31 07:00:21;;;;;;;5.68;4.40;;;;;;;19.91;69.19;100745.75;5034764;28;20052;-70
2022/05/31 07:02:50;;;;;;;5.07;4.25;;;;;;;19.99;67.71;100754.03;5019541;28;20044;-70
2022/05/31 07:05:21;;;;;;;6.72;4.82;;;;;;;20.09;67.20;100755.56;5035730;28;20041;-70
2022/05/31 07:07:52;;;;;;;6.90;4.45;;;;;;;20.18;67.35;100763.81;5035350;28;20044;-70
2022/05/31 07:10:47;;;;;;;5.43;3.63;;;;;;;20.30;67.07;100763.06;5014203;28;20495;-70
2022/05/31 07:13:20;;;;;;;4.88;3.97;;;;;;;20.50;66.54;100771.69;5052254;28;20514;-70
2022/05/31 07:16:14;;;;;;;4.35;3.90;;;;;;;20.63;66.36;100770.56;5038439;28;20051;-70
2022/05/31 07:19:14;;;;;;;5.68;3.63;;;;;;;20.73;64.56;100774.84;4999782;28;20054;-70
2022/05/31 07:21:44;;;;;;;6.15;3.67;;;;;;;20.88;64.86;100776.19;5034493;28;20491;-70
2022/05/31 07:24:13;;;;;;;5.60;3.28;;;;;;;20.93;63.21;100773.16;5034604;28;20483;-70
2022/05/31 07:27:09;;;;;;;4.05;3.53;;;;;;;21.03;63.14;100776.66;5051217;28;20048;-70
2022/05/31 07:29:42;;;;;;;4.10;3.20;;;;;;;21.04;62.17;100781.06;5033735;28;20060;-70
2022/05/31 07:32:10;;;;;;;4.53;3.83;;;;;;;20.98;63.62;100786.06;5052879;28;20040;-70
2022/05/31 07:34:58;;;;;;;4.47;3.50;;;;;;;20.79;63.37;100772.69;5033725;28;20056;-70
2022/05/31 07:37:29;;;;;;;3.90;3.25;;;;;;;20.81;63.17;100781.47;5034330;28;20388;-69
2022/05/31 07:39:57;;;;;;;4.25;3.85;;;;;;;20.80;62.86;100774.28;5034445;28;20590;-70
2022/05/31 07:42:25;;;;;;;4.95;3.50;;;;;;;20.91;63.22;100775.50;5034163;28;20060;-70
2022/05/31 07:44:58;;;;;;;3.58;2.65;;;;;;;21.02;61.72;100766.72;5034591;28;20036;-70
2022/05/31 07:47:26;;;;;;;4.05;3.22;;;;;;;21.03;63.14;100773.88;5033749;28;20499;-70
2022/05/31 07:49:54;;;;;;;5.32;2.97;;;;;;;21.19;61.90;100772.03;5033690;28;20507;-70
2022/05/31 07:52:41;;;;;;;3.53;2.65;;;;;;;21.23;61.16;100774.13;5051627;28;20075;-70
2022/05/31 07:55:28;;;;;;;5.28;3.65;;;;;;;21.12;62.16;100765.44;5034253;28;20052;-70
2022/05/31 07:58:31;;;;;;;3.85;2.70;;;;;;;21.10;62.28;100776.09;5037717;28;20041;-70
2022/05/31 08:01:25;;;;;;;4.00;2.58;;;;;;;21.34;61.19;100766.91;5052253;28;20049;-69
2022/05/31 08:03:59;;;;;;;3.58;3.03;;;;;;;21.35;60.94;100760.19;5034260;28;20033;-70
2022/05/31 08:06:32;;;;;;;5.22;3.20;;;;;;;21.39;61.26;100761.13;5051811;28;20407;-69
2022/05/31 08:09:02;;;;;;;3.45;3.15;;;;;;;21.38;60.98;100761.47;5051948;28;20483;-69
2022/05/31 08:11:32;;;;;;;3.22;2.92;;;;;;;21.41;59.07;100763.56;5052019;28;20037;-69
2022/05/31 08:14:01;;;;;;;2.17;1.98;;;;;;;21.48;57.32;100758.19;5051884;28;20044;-70
2022/05/31 08:16:30;;;;;;;3.80;2.60;;;;;;;21.46;57.57;100761.34;5037899;28;20047;-70
2022/05/31 08:18:59;;;;;;;2.03;1.90;;;;;;;21.56;57.62;100750.88;5034231;28;20045;-69
2022/05/31 08:21:33;;;;;;;4.20;2.28;;;;;;;21.71;58.31;100755.72;5051735;28;20044;-70
2022/05/31 08:24:05;;;;;;;3.30;2.90;;;;;;;21.79;57.72;100750.41;5051930;28;20041;-71
2022/05/31 08:26:53;;;;;;;5.95;3.25;;;;;;;21.86;58.89;100745.81;5051811;28;20041;-70
2022/05/31 08:29:23;;;;;;;2.92;2.50;;;;;;;21.98;57.54;100742.19;5057997;28;20522;-70
2022/05/31 08:31:51;;;;;;;2.17;1.98;;;;;;;22.12;57.54;100750.16;5071729;28;20103;-70
2022/05/31 08:34:19;;;;;;;3.17;2.45;;;;;;;22.24;56.83;100751.25;5071811;28;20052;-69
2022/05/31 08:36:47;;;;;;;3.22;2.58;;;;;;;22.33;56.32;100749.09;5071750;28;20045;-70
2022/05/31 08:39:15;;;;;;;2.40;2.10;;;;;;;22.43;56.07;100747.78;5071985;28;20045;-69
2022/05/31 08:41:46;;;;;;;7.25;2.67;;;;;;;22.44;56.26;100749.41;5071632;28;20045;-70
2022/05/31 08:44:36;;;;;;;5.53;2.83;;;;;;;22.47;55.96;100745.91;5071966;28;20041;-70
2022/05/31 08:47:23;;;;;;;3.22;2.42;;;;;;;22.66;55.13;100753.59;5071639;28;20048;-70
2022/05/31 08:53:06;;;;;;;9.95;3.20;;;;;;;22.62;53.66;100747.13;5071864;28;20055;-69
2022/05/31 08:58:43;;;;;;;;;;;;;;;22.82;55.09;100753.59;5070588;28;20053;-70
2022/05/31 09:01:18;;;;;;;4.97;2.47;;;;;;;22.89;55.33;100738.22;5070539;28;19927;-69
2022/05/31 09:04:13;;;;;;;4.65;2.88;;;;;;;23.00;53.36;100742.06;5071516;28;20041;-69
2022/05/31 09:06:55;;;;;;;3.53;2.88;;;;;;;22.93;53.32;100747.47;5070239;28;20048;-70
2022/05/31 09:09:27;;;;;;;4.47;2.17;;;;;;;23.03;53.78;100740.53;5070308;28;20047;-69
2022/05/31 09:12:32;;;;;;;6.78;2.40;;;;;;;23.20;53.58;100742.94;5071564;28;20041;-69
2022/05/31 09:15:16;;;;;;;2.72;2.35;;;;;;;23.17;51.99;100740.06;5054160;28;20384;-69
2022/05/31 09:17:50;;;;;;;3.65;2.67;;;;;;;23.30;52.76;100747.16;5067100;28;20052;-69
2022/05/31 09:20:48;;;;;;;3.40;2.33;;;;;;;23.46;51.26;100740.75;5071725;28;20049;-69
2022/05/31 09:23:25;;;;;;;1.92;1.73;;;;;;;23.55;51.92;100730.16;5071331;28;20072;-69
2022/05/31 09:26:34;;;;;;;3.25;2.75;;;;;;;23.45;51.75;100730.75;5071234;28;20041;-69
2022/05/31 09:29:17;;;;;;;3.22;2.60;;;;;;;23.32;52.43;100728.06;5043049;28;20057;-69
2022/05/31 09:31:59;;;;;;;4.28;2.47;;;;;;;23.33;52.88;100735.31;5051301;28;20475;-70
2022/05/31 09:35:00;;;;;;;6.10;3.10;;;;;;;23.55;52.18;100726.59;5051264;28;20399;-70
2022/05/31 09:37:47;;;;;;;2.95;2.42;;;;;;;23.82;52.49;100730.34;5044498;28;20506;-69
2022/05/31 09:40:40;;;;;;;2.70;2.28;;;;;;;23.85;51.35;100731.59;5054824;28;20041;-69
2022/05/31 09:43:39;;;;;;;4.18;2.80;;;;;;;24.06;51.41;100739.59;5054792;28;20045;-69
2022/05/31 09:46:09;;;;;;;3.03;2.67;;;;;;;23.89;52.40;100732.47;5054703;28;20060;-69
2022/05/31 09:48:48;;;;;;;2.78;2.20;;;;;;;23.71;51.85;100726.53;5054594;28;20053;-69
2022/05/31 09:51:37;;;;;;;3.25;2.55;;;;;;;23.44;51.63;100729.13;5054800;28;20056;-69
2022/05/31 09:57:13;;;;;;;3.28;2.28;;;;;;;23.46;52.78;100735.19;5033741;28;20049;-69
2022/05/31 10:00:20;;;;;;;3.28;2.97;;;;;;;23.71;52.20;100734.91;5054546;28;20052;-69
2022/05/31 10:03:03;;;;;;;3.58;3.22;;;;;;;23.69;52.71;100735.25;5043355;28;20120;-69
2022/05/31 10:05:32;;;;;;;3.80;3.07;;;;;;;23.60;52.04;100727.09;5054030;28;20044;-69
2022/05/31 10:08:03;;;;;;;2.97;2.63;;;;;;;23.47;52.64;100720.81;5054416;28;20049;-69
2022/05/31 10:10:35;;;;;;;3.50;2.95;;;;;;;23.49;52.95;100731.63;5054161;28;20059;-70
2022/05/31 10:13:09;;;;;;;5.38;2.95;;;;;;;23.53;52.15;100726.13;5020648;28;20071;-69
2022/05/31 10:15:45;;;;;;;4.85;3.38;;;;;;;23.54;52.51;100727.75;5045554;28;20749;-69
2022/05/31 10:18:29;;;;;;;3.55;2.75;;;;;;;23.52;51.64;100730.91;5053030;28;20045;-70
2022/05/31 10:21:02;;;;;;;2.88;2.60;;;;;;;23.55;52.49;100732.97;5052997;28;20045;-70
2022/05/31 10:23:44;;;;;;;4.55;2.92;;;;;;;23.61;52.63;100733.50;5033116;28;20487;-70
2022/05/31 10:26:33;;;;;;;3.72;2.88;;;;;;;23.50;52.38;100733.25;5053807;28;20554;-70
2022/05/31 10:29:27;;;;;;;3.38;3.08;;;;;;;23.34;52.70;100720.16;5054096;28;20056;-70
2022/05/31 10:32:43;;;;;;;3.25;2.92;;;;;;;23.27;53.71;100721.94;5036288;28;20052;-70
2022/05/31 10:35:19;;;;;;;2.78;2.45;;;;;;;23.50;53.67;100736.03;4957682;28;20055;-70
2022/05/31 10:38:17;;;;;;;3.10;2.80;;;;;;;23.65;52.70;100728.00;5037562;28;20044;-70
2022/05/31 10:40:48;;;;;;;4.35;2.95;;;;;;;24.07;51.49;100720.81;5042536;28;20037;-70
2022/05/31 10:43:35;;;;;;;3.10;2.70;;;;;;;24.50;51.37;100729.25;5027413;28;20369;-70
2022/05/31 10:46:14;;;;;;;3.20;2.90;;;;;;;24.85;49.56;100722.66;5041829;28;20054;-70
2022/05/31 10:48:47;;;;;;;3.25;2.95;;;;;;;25.23;48.18;100729.22;5043991;28;20049;-70
2022/05/31 10:51:32;;;;;;;3.67;3.00;;;;;;;25.41;48.36;100736.28;5032040;28;20049;-70
2022/05/31 10:54:26;;;;;;;6.85;3.38;;;;;;;25.59;47.77;100717.75;5034664;28;20399;-70
2022/05/31 10:57:30;;;;;;;4.05;3.10;;;;;;;25.66;47.60;100717.03;5035424;28;20037;-70
2022/05/31 11:00:20;;;;;;;3.75;3.30;;;;;;;25.68;47.00;100714.66;5035196;28;20053;-70
2022/05/31 11:03:02;;;;;;;5.35;3.05;;;;;;;25.84;46.94;100711.66;5034770;28;20045;-70
2022/05/31 11:05:57;;;;;;;3.30;3.00;;;;;;;26.08;46.13;100709.50;5034663;28;20045;-70
2022/05/31 11:12:10;;;;;;;5.22;3.58;;;;;;;25.67;47.42;100710.25;5035781;28;19921;-70
2022/05/31 11:15:12;;;;;;;4.00;3.33;;;;;;;25.98;46.14;100705.41;5018504;28;20052;-70
2022/05/31 11:17:54;;;;;;;2.83;2.63;;;;;;;26.21;46.69;100701.63;5037755;28;20044;-69
2022/05/31 11:20:37;;;;;;;4.35;3.33;;;;;;;25.98;46.14;100710.19;5042705;28;20041;-70
2022/05/31 11:23:36;;;;;;;5.15;3.47;;;;;;;25.63;46.11;100713.03;5031721;28;20041;-70
2022/05/31 11:26:09;;;;;;;5.32;3.67;;;;;;;25.30;46.89;100711.72;5032195;28;20057;-70
2022/05/31 11:28:57;;;;;;;3.33;3.03;;;;;;;25.28;47.68;100716.09;5040802;28;20041;-70
2022/05/31 11:31:52;;;;;;;4.07;3.10;;;;;;;25.00;47.62;100711.69;5050504;28;20041;-70
2022/05/31 11:34:31;;;;;;;3.40;2.95;;;;;;;25.15;47.21;100718.31;5051129;28;20041;-70
2022/05/31 11:37:10;;;;;;;3.65;2.78;;;;;;;25.23;47.33;100714.44;5031998;28;20049;-70
2022/05/31 11:40:07;;;;;;;3.13;2.83;;;;;;;25.22;48.32;100710.81;5046484;28;20052;-70
2022/05/31 11:42:54;;;;;;;4.22;3.00;;;;;;;25.15;46.58;100709.91;5047755;28;20045;-70
2022/05/31 11:45:31;;;;;;;3.78;2.83;;;;;;;25.32;47.36;100700.16;5048357;28;20044;-70
2022/05/31 11:48:17;;;;;;;4.60;2.97;;;;;;;25.27;46.80;100701.28;5050305;28;20053;-70
2022/05/31 11:51:04;;;;;;;4.82;3.17;;;;;;;25.35;46.84;100696.59;5030868;28;20046;-70
2022/05/31 11:53:46;;;;;;;3.33;3.03;;;;;;;25.34;46.79;100700.59;5046219;28;20060;-70
2022/05/31 11:56:24;;;;;;;3.17;2.78;;;;;;;25.43;46.73;100695.50;5036759;28;20055;-70
2022/05/31 11:59:04;;;;;;;3.95;3.05;;;;;;;25.32;46.02;100695.34;5041691;28;20056;-70
2022/05/31 12:01:41;;;;;;;5.22;2.72;;;;;;;25.36;47.26;100689.78;5044172;28;20052;-69
2022/05/31 12:04:39;;;;;;;4.47;3.72;;;;;;;25.08;47.19;100696.63;5043009;28;20492;-70
2022/05/31 12:07:20;;;;;;;6.15;2.78;;;;;;;25.02;47.67;100695.34;5049018;28;20403;-70
2022/05/31 12:10:04;;;;;;;3.05;2.28;;;;;;;25.03;47.10;100682.94;5037513;28;20392;-70
2022/05/31 12:12:35;;;;;;;3.10;2.60;;;;;;;25.04;47.42;100684.56;5042300;28;20041;-70
2022/05/31 12:15:22;;;;;;;3.78;2.47;;;;;;;25.03;47.67;100694.16;5023831;28;20061;-70
2022/05/31 12:17:59;;;;;;;2.90;2.53;;;;;;;24.93;47.73;100690.81;5031362;28;20049;-70
2022/05/31 12:20:36;;;;;;;4.13;2.55;;;;;;;24.81;47.85;100696.59;5039576;28;20049;-69
2022/05/31 12:23:13;;;;;;;2.80;2.60;;;;;;;24.78;48.01;100697.34;5039295;28;20464;-70
2022/05/31 12:25:49;;;;;;;3.83;2.95;;;;;;;24.63;48.18;100702.69;5023381;28;20060;-70
2022/05/31 12:28:25;;;;;;;3.10;2.80;;;;;;;24.56;48.40;100695.00;5042043;28;20471;-70
2022/05/31 12:31:23;;;;;;;3.63;3.05;;;;;;;24.59;48.24;100681.44;5044435;28;20419;-70
2022/05/31 12:33:52;;;;;;;4.40;2.83;;;;;;;24.49;48.07;100675.28;5044161;28;20041;-70
2022/05/31 12:36:23;;;;;;;3.63;2.80;;;;;;;24.49;48.27;100672.47;5045522;28;20045;-69
2022/05/31 12:39:04;;;;;;;2.80;2.47;;;;;;;24.66;48.22;100673.97;5049595;28;20495;-69
2022/05/31 12:41:37;;;;;;;4.72;3.10;;;;;;;24.78;48.08;100663.75;5035625;28;20048;-70